createdAt,value
2022-11-24T00:01:12.320Z,99585.25
2022-11-24T00:03:40.262Z,99591.41
2022-11-24T00:06:10.833Z,99591.63
2022-11-24T00:08:39.912Z,99591.91
2022-11-24T00:11:09.595Z,99600.22
2022-11-24T00:13:39.016Z,99604.94
2022-11-24T00:16:13.782Z,99600.22
2022-11-24T00:18:42.898Z,99609.38
2022-11-24T00:21:10.891Z,99612.84
2022-11-24T00:23:39.054Z,99607.81
2022-11-24T00:26:08.806Z,99604.91
2022-11-24T00:28:37.626Z,99614.16
2022-11-24T00:31:07.102Z,99608.75
2022-11-24T00:33:36.284Z,99621.16
2022-11-24T00:36:03.931Z,99619.59
2022-11-24T00:38:31.605Z,99623.81
2022-11-24T00:40:59.300Z,99622.25
2022-11-24T00:43:27.005Z,99624.06
2022-11-24T00:45:54.792Z,99624.19
2022-11-24T00:48:23.174Z,99620.91
2022-11-24T00:50:58.334Z,99630.06
2022-11-24T00:53:26.358Z,99636.72
2022-11-24T00:55:54.548Z,99634.06
2022-11-24T00:58:22.849Z,99639.53
2022-11-24T01:00:51.205Z,99651.81
2022-11-24T01:03:20.572Z,99652.19
2022-11-24T01:05:48.549Z,99653.97
2022-11-24T01:08:17.618Z,99660.75
2022-11-24T01:10:45.423Z,99653.03
2022-11-24T01:13:13.317Z,99673.63
2022-11-24T01:15:41.027Z,99671.34
2022-11-24T01:18:08.734Z,99673.84
2022-11-24T01:20:37.714Z,99680.38
2022-11-24T01:23:05.415Z,99691.34
2022-11-24T01:25:34.357Z,99686.28
2022-11-24T01:28:02.010Z,99686.16
2022-11-24T01:30:29.713Z,99683.41
2022-11-24T01:32:57.429Z,99692.19
2022-11-24T01:35:25.043Z,99692.31
2022-11-24T01:37:52.661Z,99696.38
2022-11-24T01:40:20.492Z,99708.91
2022-11-24T01:42:51.166Z,99706.13
2022-11-24T01:45:32.235Z,99716.50
2022-11-24T01:48:03.411Z,99717.81
2022-11-24T01:50:31.328Z,99717.94
2022-11-24T01:52:59.751Z,99714.31
2022-11-24T01:55:32.781Z,99715.63
2022-11-24T01:58:06.287Z,99721.41
2022-11-24T02:00:35.669Z,99721.84
2022-11-24T02:03:03.507Z,99717.38
2022-11-24T02:05:38.152Z,99713.28
2022-11-24T02:08:12.085Z,99713.78
2022-11-24T02:10:40.063Z,99712.00
2022-11-24T02:13:09.226Z,99716.59
2022-11-24T02:15:37.024Z,99712.13
2022-11-24T02:18:04.901Z,99717.56
2022-11-24T02:20:34.076Z,99711.75
2022-11-24T02:23:06.013Z,99713.66
2022-11-24T02:25:41.989Z,99715.63
2022-11-24T02:28:15.251Z,99712.44
2022-11-24T02:30:43.447Z,99716.22
2022-11-24T02:33:12.985Z,99716.44
2022-11-24T02:35:41.043Z,99713.69
2022-11-24T02:38:12.378Z,99706.69
2022-11-24T02:40:42.511Z,99713.78
2022-11-24T02:43:15.387Z,99711.13
2022-11-24T02:45:42.914Z,99716.22
2022-11-24T02:48:10.662Z,99718.97
2022-11-24T02:50:38.936Z,99714.91
2022-11-24T02:53:06.657Z,99725.78
2022-11-24T02:55:34.391Z,99721.63
2022-11-24T02:58:02.110Z,99719.13
2022-11-24T03:00:31.415Z,99720.19
2022-11-24T03:02:59.251Z,99725.66
2022-11-24T03:05:27.344Z,99726.72
2022-11-24T03:07:55.176Z,99728.81
2022-11-24T03:10:22.954Z,99718.53
2022-11-24T03:12:50.611Z,99720.47
2022-11-24T03:15:18.664Z,99715.44
2022-11-24T03:17:47.709Z,99717.72
2022-11-24T03:20:15.375Z,99716.78
2022-11-24T03:22:43.157Z,99717.16
2022-11-24T03:25:11.350Z,99714.88
2022-11-24T03:27:39.072Z,99714.66
2022-11-24T03:30:08.120Z,99715.97
2022-11-24T03:32:35.930Z,99716.47
2022-11-24T03:35:06.068Z,99717.56
2022-11-24T03:37:33.812Z,99718.63
2022-11-24T03:40:01.687Z,99717.78
2022-11-24T03:42:29.451Z,99721.28
2022-11-24T03:44:57.151Z,99729.22
2022-11-24T03:47:24.905Z,99735.38
2022-11-24T03:49:52.634Z,99735.50
2022-11-24T03:52:21.679Z,99729.22
2022-11-24T03:54:49.381Z,99743.34
2022-11-24T03:57:17.152Z,99749.38
2022-11-24T03:59:44.815Z,99744.91
2022-11-24T04:02:12.625Z,99753.69
2022-11-24T04:04:40.348Z,99746.56
2022-11-24T04:07:08.160Z,99748.16
2022-11-24T04:09:37.267Z,99750.66
2022-11-24T04:12:22.894Z,99748.88
2022-11-24T04:14:50.590Z,99744.41
2022-11-24T04:17:18.271Z,99746.09
2022-11-24T04:19:45.985Z,99752.09
2022-11-24T04:22:13.663Z,99753.09
2022-11-24T04:24:42.737Z,99749.59
2022-11-24T04:27:10.492Z,99755.63
2022-11-24T04:29:38.227Z,99766.13
2022-11-24T04:32:06.657Z,99764.19
2022-11-24T04:34:34.558Z,99765.84
2022-11-24T04:37:02.406Z,99765.03
2022-11-24T04:39:30.052Z,99776.34
2022-11-24T04:41:59.943Z,99766.84
2022-11-24T04:44:27.978Z,99769.59
2022-11-24T04:46:55.680Z,99768.28
2022-11-24T04:49:23.593Z,99786.84
2022-11-24T04:51:51.274Z,99774.41
2022-11-24T04:54:19.014Z,99781.28
2022-11-24T04:56:46.764Z,99781.28
2022-11-24T04:59:15.930Z,99783.00
2022-11-24T05:01:43.717Z,99791.78
2022-11-24T05:04:12.502Z,99801.41
2022-11-24T05:06:40.456Z,99793.44
2022-11-24T05:09:08.883Z,99799.34
2022-11-24T05:11:36.558Z,99799.25
2022-11-24T05:14:04.263Z,99795.66
2022-11-24T05:16:33.376Z,99798.41
2022-11-24T05:19:01.126Z,99791.66
2022-11-24T05:21:28.950Z,99799.38
2022-11-24T05:23:56.671Z,99786.97
2022-11-24T05:26:24.438Z,99798.75
2022-11-24T05:28:52.228Z,99796.59
2022-11-24T05:31:20.039Z,99795.50
2022-11-24T05:33:49.903Z,99791.00
2022-11-24T05:36:31.511Z,99812.59
2022-11-24T05:38:59.223Z,99810.94
2022-11-24T05:41:27.318Z,99809.84
2022-11-24T05:43:55.060Z,99828.41
2022-11-24T05:46:23.012Z,99826.75
2022-11-24T05:48:52.226Z,99825.03
2022-11-24T05:51:20.006Z,99828.53
2022-11-24T05:53:47.648Z,99823.38
2022-11-24T05:56:15.322Z,99820.72
2022-11-24T05:58:43.898Z,99826.75
2022-11-24T06:01:11.607Z,99828.06
2022-11-24T06:03:39.322Z,99838.41
2022-11-24T06:06:08.743Z,99840.19
2022-11-24T06:08:36.521Z,99851.69
2022-11-24T06:11:17.256Z,99853.97
2022-11-24T06:13:46.184Z,99846.97
2022-11-24T06:16:14.719Z,99846.84
2022-11-24T06:18:42.627Z,99847.69
2022-11-24T06:21:12.237Z,99856.63
2022-11-24T06:23:40.415Z,99856.13
2022-11-24T06:26:09.199Z,99855.56
2022-11-24T06:28:37.043Z,99854.94
2022-11-24T06:31:06.322Z,99864.25
2022-11-24T06:33:34.669Z,99860.38
2022-11-24T06:36:04.607Z,99859.53
2022-11-24T06:38:35.362Z,99861.94
2022-11-24T06:41:06.342Z,99855.44
2022-11-24T06:43:35.361Z,99858.47
2022-11-24T06:46:03.545Z,99862.06
2022-11-24T06:48:32.039Z,99871.94
2022-11-24T06:51:00.883Z,99872.56
2022-11-24T06:53:31.534Z,99875.22
2022-11-24T06:56:01.660Z,99879.91
2022-11-24T06:58:29.687Z,99881.59
2022-11-24T07:00:57.576Z,99874.72
2022-11-24T07:03:25.460Z,99886.19
2022-11-24T07:05:58.143Z,99889.19
2022-11-24T07:08:26.508Z,99899.31
2022-11-24T07:10:54.214Z,99898.50
2022-11-24T07:13:23.270Z,99902.09
2022-11-24T07:15:51.048Z,99911.88
2022-11-24T07:18:18.814Z,99908.22
2022-11-24T07:20:46.528Z,99911.50
2022-11-24T07:23:14.393Z,99917.91
2022-11-24T07:25:42.126Z,99920.56
2022-11-24T07:28:10.086Z,99924.16
2022-11-24T07:30:39.190Z,99927.78
2022-11-24T07:33:06.889Z,99925.25
2022-11-24T07:35:34.542Z,99927.78
2022-11-24T07:38:02.357Z,99940.31
2022-11-24T07:40:30.068Z,99944.78
2022-11-24T07:43:00.868Z,99943.09
2022-11-24T07:45:29.063Z,99950.47
2022-11-24T07:47:58.989Z,99948.75
2022-11-24T07:50:26.942Z,99962.03
2022-11-24T07:52:54.908Z,99970.97
2022-11-24T07:55:22.682Z,99963.94
2022-11-24T07:57:50.472Z,99967.78
2022-11-24T08:00:19.240Z,99969.63
2022-11-24T08:02:47.121Z,99978.56
2022-11-24T08:05:16.454Z,99985.53
2022-11-24T08:07:44.713Z,99983.72
2022-11-24T08:10:13.116Z,99981.78
2022-11-24T08:12:41.118Z,99981.69
2022-11-24T08:15:11.582Z,99984.84
2022-11-24T08:17:39.609Z,99992.22
2022-11-24T08:20:09.043Z,99994.78
2022-11-24T08:22:38.168Z,99994.78
2022-11-24T08:25:06.576Z,100007.69
2022-11-24T08:27:34.300Z,100013.72
2022-11-24T08:30:02.052Z,100012.03
2022-11-24T08:32:29.963Z,100019.75
2022-11-24T08:35:08.545Z,100026.50
2022-11-24T08:37:42.793Z,100030.75
2022-11-24T08:40:12.016Z,100038.97
2022-11-24T08:42:39.847Z,100029.53
2022-11-24T08:45:20.414Z,100036.06
2022-11-24T08:47:53.072Z,100049.47
2022-11-24T08:50:20.977Z,100046.56
2022-11-24T08:52:50.116Z,100052.63
2022-11-24T08:55:18.969Z,100036.28
2022-11-24T08:57:46.789Z,100053.09
2022-11-24T09:00:22.124Z,100048.38
2022-11-24T09:02:57.897Z,100050.06
2022-11-24T09:05:50.816Z,100051.88
2022-11-24T09:08:15.362Z,100063.22
2022-11-24T09:10:43.895Z,100066.47
2022-11-24T09:13:11.611Z,100065.63
2022-11-24T09:15:39.441Z,100075.44
2022-11-24T09:18:07.276Z,100082.69
2022-11-24T09:20:35.241Z,100071.69
2022-11-24T09:23:02.954Z,100079.75
2022-11-24T09:25:32.077Z,100073.84
2022-11-24T09:27:59.994Z,100082.53
2022-11-24T09:30:28.110Z,100079.88
2022-11-24T09:32:57.115Z,100085.09
2022-11-24T09:35:25.748Z,100089.06
2022-11-24T09:37:53.553Z,100089.19
2022-11-24T09:40:27.882Z,100093.38
2022-11-24T09:43:02.479Z,100096.38
2022-11-24T09:48:39.142Z,100090.13
2022-11-24T09:51:10.609Z,100100.94
2022-11-24T09:53:42.377Z,100097.34
2022-11-24T09:56:19.760Z,100092.59
2022-11-24T09:58:51.655Z,100105.03
2022-11-24T10:01:21.730Z,100105.38
2022-11-24T10:03:51.897Z,100104.09
2022-11-24T10:06:25.809Z,100108.34
2022-11-24T10:09:14.513Z,100112.56
2022-11-24T10:11:49.799Z,100118.66
2022-11-24T10:14:36.757Z,100111.69
2022-11-24T10:17:18.511Z,100112.31
2022-11-24T10:19:52.155Z,100122.56
2022-11-24T10:22:35.672Z,100118.03
2022-11-24T10:25:16.969Z,100121.94
2022-11-24T10:27:46.415Z,100121.06
2022-11-24T10:30:18.531Z,100120.06
2022-11-24T10:32:57.065Z,100123.84
2022-11-24T10:35:30.402Z,100119.53
2022-11-24T10:38:07.612Z,100110.91
2022-11-24T10:40:56.551Z,100120.41
2022-11-24T10:43:27.733Z,100124.88
2022-11-24T10:46:06.752Z,100117.75
2022-11-24T10:48:41.924Z,100123.78
2022-11-24T10:51:33.908Z,100126.44
2022-11-24T10:54:08.235Z,100121.97
2022-11-24T10:56:42.400Z,100126.06
2022-11-24T10:59:36.003Z,100130.00
2022-11-24T11:02:36.745Z,100124.94
2022-11-24T11:05:42.175Z,100129.22
2022-11-24T11:08:20.773Z,100132.47
2022-11-24T11:10:49.881Z,100134.34
2022-11-24T11:13:26.079Z,100143.88
2022-11-24T11:15:54.234Z,100141.53
2022-11-24T11:18:26.722Z,100150.03
2022-11-24T11:20:56.703Z,100146.16
2022-11-24T11:23:28.867Z,100158.97
2022-11-24T11:26:20.082Z,100158.72
2022-11-24T11:34:52.007Z,100165.56
2022-11-24T11:37:21.148Z,100161.63
2022-11-24T11:39:50.621Z,100166.50
2022-11-24T11:42:59.920Z,100164.53
2022-11-24T11:45:18.122Z,100160.66
2022-11-24T11:47:52.342Z,100163.47
2022-11-24T11:50:26.150Z,100160.28
2022-11-24T11:53:06.193Z,100159.50
2022-11-24T11:55:49.904Z,100147.31
2022-11-24T11:58:33.827Z,100149.00
2022-11-24T12:01:12.764Z,100147.28
2022-11-24T12:03:56.585Z,100145.72
2022-11-24T12:06:46.230Z,100148.41
2022-11-24T12:09:26.060Z,100153.03
2022-11-24T12:12:09.827Z,100156.59
2022-11-24T12:14:45.812Z,100158.13
2022-11-24T12:17:23.504Z,100160.94
2022-11-24T12:20:08.309Z,100171.66
2022-11-24T12:22:43.969Z,100177.25
2022-11-24T12:25:27.934Z,100181.16
2022-11-24T12:28:06.994Z,100182.28
2022-11-24T12:30:44.438Z,100186.28
2022-11-24T12:33:50.608Z,100186.41
2022-11-24T12:36:35.152Z,100186.94
2022-11-24T12:39:08.015Z,100187.28
2022-11-24T12:41:50.466Z,100199.50
2022-11-24T12:44:36.430Z,100194.59
2022-11-24T12:47:15.135Z,100188.88
2022-11-24T12:49:53.987Z,100190.03
2022-11-24T12:52:27.048Z,100187.00
2022-11-24T12:54:57.670Z,100187.72
2022-11-24T12:57:31.473Z,100193.25
2022-11-24T13:00:06.582Z,100190.03
2022-11-24T13:02:56.076Z,100195.06
2022-11-24T13:05:27.841Z,100194.97
2022-11-24T13:07:59.171Z,100202.53
2022-11-24T13:10:54.886Z,100202.41
2022-11-24T13:13:27.303Z,100195.53
2022-11-24T13:19:10.034Z,100208.56
2022-11-24T13:21:59.383Z,100215.97
2022-11-24T13:24:30.687Z,100209.28
2022-11-24T13:27:27.723Z,100210.69
2022-11-24T13:29:55.756Z,100214.16
2022-11-24T13:32:47.450Z,100211.84
2022-11-24T13:35:16.524Z,100215.16
2022-11-24T13:37:52.880Z,100199.91
2022-11-24T13:40:59.645Z,100210.34
2022-11-24T13:43:33.752Z,100204.06
2022-11-24T13:46:03.669Z,100211.75
2022-11-24T13:48:58.657Z,100204.41
2022-11-24T13:51:27.821Z,100202.75
2022-11-24T13:53:58.017Z,100204.81
2022-11-24T13:56:31.147Z,100201.56
2022-11-24T13:59:04.097Z,100197.72
2022-11-24T14:01:33.200Z,100198.50
2022-11-24T14:04:30.616Z,100191.22
2022-11-24T14:07:09.249Z,100195.53
2022-11-24T14:09:43.131Z,100187.06
2022-11-24T14:12:15.707Z,100189.72
2022-11-24T14:14:46.225Z,100190.44
2022-11-24T14:17:22.327Z,100194.78
2022-11-24T14:19:51.718Z,100202.63
2022-11-24T14:22:22.636Z,100199.63
2022-11-24T14:24:56.560Z,100195.00
2022-11-24T14:27:30.741Z,100196.69
2022-11-24T14:30:02.007Z,100194.00
2022-11-24T14:32:30.104Z,100198.50
2022-11-24T14:34:57.972Z,100199.75
2022-11-24T14:37:25.969Z,100198.03
2022-11-24T14:39:53.669Z,100187.53
2022-11-24T14:42:23.049Z,100197.44
2022-11-24T14:44:55.613Z,100205.69
2022-11-24T14:47:31.389Z,100192.91
2022-11-24T14:50:10.387Z,100196.66
2022-11-24T14:52:45.625Z,100205.88
2022-11-24T14:55:25.986Z,100202.75
2022-11-24T14:57:53.924Z,100199.59
2022-11-24T15:00:29.496Z,100207.97
2022-11-24T15:03:15.888Z,100214.41
2022-11-24T15:05:56.071Z,100218.38
2022-11-24T15:08:26.384Z,100223.50
2022-11-24T15:10:59.148Z,100221.34
2022-11-24T15:13:27.310Z,100226.44
2022-11-24T15:16:02.341Z,100226.94
2022-11-24T15:18:41.564Z,100225.72
2022-11-24T15:21:14.146Z,100224.38
2022-11-24T15:24:05.778Z,100225.97
2022-11-24T15:26:38.540Z,100224.66
2022-11-24T15:29:09.686Z,100229.47
2022-11-24T15:31:38.019Z,100227.28
2022-11-24T15:34:07.743Z,100219.69
2022-11-24T15:36:35.790Z,100229.81
2022-11-24T15:39:03.544Z,100224.03
2022-11-24T15:41:33.356Z,100227.06
2022-11-24T15:44:01.218Z,100226.56
2022-11-24T15:46:30.009Z,100224.38
2022-11-24T15:48:58.068Z,100229.34
2022-11-24T15:51:27.938Z,100228.00
2022-11-24T15:54:01.088Z,100230.16
2022-11-24T15:56:33.269Z,100237.66
2022-11-24T15:59:01.470Z,100235.31
2022-11-24T16:01:32.207Z,100241.09
2022-11-24T16:04:00.246Z,100244.94
2022-11-24T16:06:29.368Z,100243.50
2022-11-24T16:08:58.145Z,100245.78
2022-11-24T16:11:25.943Z,100242.59
2022-11-24T16:13:54.487Z,100250.91
2022-11-24T16:16:27.242Z,100262.72
2022-11-24T16:18:55.105Z,100255.13
2022-11-24T16:21:23.205Z,100256.16
2022-11-24T16:23:52.567Z,100252.88
2022-11-24T16:26:20.433Z,100250.47
2022-11-24T16:28:48.243Z,100263.03
2022-11-24T16:31:16.552Z,100256.97
2022-11-24T16:33:46.314Z,100257.19
2022-11-24T16:36:14.738Z,100259.00
2022-11-24T16:38:42.596Z,100254.66
2022-11-24T16:41:11.662Z,100254.03
2022-11-24T16:43:39.884Z,100258.63
2022-11-24T16:46:21.636Z,100256.13
2022-11-24T16:48:51.260Z,100253.72
2022-11-24T16:51:20.644Z,100255.84
2022-11-24T16:53:48.966Z,100252.56
2022-11-24T16:56:18.118Z,100252.91
2022-11-24T16:58:45.775Z,100255.78
2022-11-24T17:01:14.799Z,100254.31
2022-11-24T17:03:42.764Z,100256.34
2022-11-24T17:06:12.472Z,100262.84
2022-11-24T17:08:41.548Z,100260.50
2022-11-24T17:11:09.844Z,100252.03
2022-11-24T17:13:39.465Z,100261.28
2022-11-24T17:16:09.182Z,100263.72
2022-11-24T17:18:38.459Z,100267.44
2022-11-24T17:21:09.840Z,100263.09
2022-11-24T17:23:38.353Z,100260.25
2022-11-24T17:26:08.179Z,100274.66
2022-11-24T17:28:36.886Z,100268.19
2022-11-24T17:31:09.752Z,100271.25
2022-11-24T17:33:37.433Z,100271.78
2022-11-24T17:36:06.057Z,100274.00
2022-11-24T17:38:35.074Z,100275.25
2022-11-24T17:41:03.744Z,100273.69
2022-11-24T17:43:31.489Z,100282.66
2022-11-24T17:46:02.001Z,100276.84
2022-11-24T17:48:32.459Z,100279.56
2022-11-24T17:51:01.635Z,100282.53
2022-11-24T17:53:29.871Z,100281.97
2022-11-24T17:56:00.070Z,100278.50
2022-11-24T17:58:28.363Z,100280.41
2022-11-24T18:00:56.191Z,100284.84
2022-11-24T18:03:25.564Z,100291.00
2022-11-24T18:05:54.685Z,100289.41
2022-11-24T18:08:22.425Z,100289.50
2022-11-24T18:10:50.189Z,100294.88
2022-11-24T18:13:40.679Z,100305.56
2022-11-24T18:16:07.942Z,100302.25
2022-11-24T18:18:40.130Z,100292.94
2022-11-24T18:21:14.283Z,100301.06
2022-11-24T18:23:43.220Z,100300.97
2022-11-24T18:26:14.886Z,100303.63
2022-11-24T18:28:43.576Z,100303.63
2022-11-24T18:31:13.356Z,100305.63
2022-11-24T18:33:42.857Z,100297.25
2022-11-24T18:36:14.442Z,100296.69
2022-11-24T18:38:42.317Z,100290.63
2022-11-24T18:41:10.537Z,100286.41
2022-11-24T18:43:38.983Z,100284.91
2022-11-24T18:46:08.502Z,100277.91
2022-11-24T18:48:36.859Z,100281.38
2022-11-24T18:51:04.973Z,100285.84
2022-11-24T18:53:34.175Z,100282.34
2022-11-24T18:56:04.098Z,100286.78
2022-11-24T18:58:33.229Z,100281.59
2022-11-24T19:01:08.121Z,100278.28
2022-11-24T19:03:42.334Z,100274.81
2022-11-24T19:06:16.354Z,100273.09
2022-11-24T19:08:46.001Z,100269.50
2022-11-24T19:11:21.214Z,100268.69
2022-11-24T19:13:49.427Z,100272.25
2022-11-24T19:16:18.021Z,100276.78
2022-11-24T19:18:51.874Z,100283.03
2022-11-24T19:21:21.573Z,100281.41
2022-11-24T19:23:51.057Z,100273.63
2022-11-24T19:26:19.158Z,100280.66
2022-11-24T19:28:46.978Z,100278.16
2022-11-24T19:31:16.832Z,100275.03
2022-11-24T19:33:44.920Z,100276.16
2022-11-24T19:36:14.859Z,100277.31
2022-11-24T19:38:43.982Z,100277.53
2022-11-24T19:41:14.914Z,100280.44
2022-11-24T19:43:43.367Z,100273.59
2022-11-24T19:46:13.803Z,100275.78
2022-11-24T19:48:43.948Z,100285.78
2022-11-24T19:51:14.433Z,100269.47
2022-11-24T19:53:43.242Z,100275.69
2022-11-24T19:56:13.823Z,100275.06
2022-11-24T19:58:41.890Z,100272.78
2022-11-24T20:01:11.715Z,100274.84
2022-11-24T20:03:40.440Z,100268.06
2022-11-24T20:06:10.690Z,100268.22
2022-11-24T20:08:40.162Z,100271.91
2022-11-24T20:11:09.744Z,100274.94
2022-11-24T20:13:40.712Z,100266.25
2022-11-24T20:16:10.375Z,100274.19
2022-11-24T20:18:42.153Z,100277.94
2022-11-24T20:21:12.151Z,100286.25
2022-11-24T20:23:41.192Z,100283.69
2022-11-24T20:26:11.049Z,100289.16
2022-11-24T20:28:40.569Z,100282.34
2022-11-24T20:31:10.297Z,100284.34
2022-11-24T20:33:38.421Z,100284.59
2022-11-24T20:36:08.391Z,100280.53
2022-11-24T20:38:37.979Z,100279.94
2022-11-24T20:41:09.378Z,100280.22
2022-11-24T20:43:37.642Z,100285.41
2022-11-24T20:46:09.232Z,100278.34
2022-11-24T20:48:37.502Z,100277.59
2022-11-24T20:51:05.458Z,100279.63
2022-11-24T20:53:33.411Z,100282.47
2022-11-24T20:56:05.902Z,100283.47
2022-11-24T20:58:35.150Z,100295.34
2022-11-24T21:01:08.627Z,100290.91
2022-11-24T21:03:42.580Z,100281.28
2022-11-24T21:06:12.259Z,100288.44
2022-11-24T21:08:41.837Z,100295.50
2022-11-24T21:11:12.118Z,100295.59
2022-11-24T21:13:42.275Z,100289.66
2022-11-24T21:16:16.329Z,100283.63
2022-11-24T21:18:45.158Z,100297.81
2022-11-24T21:21:14.118Z,100301.56
2022-11-24T21:23:42.196Z,100300.81
2022-11-24T21:26:16.187Z,100300.66
2022-11-24T21:28:46.251Z,100301.50
2022-11-24T21:31:17.229Z,100297.06
2022-11-24T21:33:46.437Z,100301.22
2022-11-24T21:36:15.877Z,100301.06
2022-11-24T21:38:43.983Z,100299.19
2022-11-24T21:41:14.022Z,100298.16
2022-11-24T21:43:42.023Z,100290.22
2022-11-24T21:46:11.839Z,100299.00
2022-11-24T21:48:42.409Z,100283.91
2022-11-24T21:51:13.645Z,100295.22
2022-11-24T21:53:42.242Z,100293.47
2022-11-24T21:56:13.722Z,100289.97
2022-11-24T21:58:45.995Z,100290.06
2022-11-24T22:01:14.314Z,100288.28
2022-11-24T22:03:44.047Z,100295.22
2022-11-24T22:06:12.168Z,100291.75
2022-11-24T22:08:40.207Z,100297.31
2022-11-24T22:11:11.227Z,100285.47
2022-11-24T22:13:39.067Z,100290.19
2022-11-24T22:16:09.011Z,100300.81
2022-11-24T22:18:39.069Z,100292.06
2022-11-24T22:21:09.655Z,100292.06
2022-11-24T22:23:37.766Z,100292.56
2022-11-24T22:26:06.929Z,100288.66
2022-11-24T22:28:35.809Z,100280.50
2022-11-24T22:31:08.025Z,100294.97
2022-11-24T22:33:36.182Z,100298.09
2022-11-24T22:36:04.398Z,100297.75
2022-11-24T22:38:34.605Z,100297.94
2022-11-24T22:41:02.975Z,100288.28
2022-11-24T22:43:32.611Z,100291.19
2022-11-24T22:46:05.083Z,100300.00
2022-11-24T22:48:33.464Z,100304.63
2022-11-24T22:51:05.111Z,100306.44
2022-11-24T22:53:34.848Z,100303.31
2022-11-24T22:56:02.921Z,100301.50
2022-11-24T22:58:31.152Z,100305.25
2022-11-24T23:01:04.187Z,100313.38
2022-11-24T23:03:32.083Z,100320.78
2022-11-24T23:06:00.573Z,100314.56
2022-11-24T23:08:28.343Z,100307.75
2022-11-24T23:11:01.891Z,100308.59
2022-11-24T23:13:29.729Z,100307.75
2022-11-24T23:16:01.945Z,100307.94
2022-11-24T23:18:29.747Z,100307.22
2022-11-24T23:20:57.722Z,100305.28
2022-11-24T23:23:25.405Z,100295.44
2022-11-24T23:25:53.082Z,100302.22
2022-11-24T23:28:22.166Z,100303.69
2022-11-24T23:30:49.856Z,100296.41
2022-11-24T23:33:17.567Z,100294.56
2022-11-24T23:35:45.516Z,100280.63
2022-11-24T23:38:13.256Z,100280.53
2022-11-24T23:40:40.968Z,100283.84
2022-11-24T23:43:08.748Z,100282.75
2022-11-24T23:45:38.026Z,100278.16
2022-11-24T23:48:08.473Z,100279.03
2022-11-24T23:50:36.472Z,100281.56
2022-11-24T23:53:04.140Z,100280.97
2022-11-24T23:55:31.817Z,100277.66
2022-11-24T23:57:59.583Z,100273.56
